Time;durP1;ratioP1;P1;durP2;ratioP2;P2;SDS_P1;SDS_P2;PMS_P1;PMS_P2;Temp;Humidity;BMP_temperature;BMP_pressure;BME280_temperature;BME280_humidity;BME280_pressure;Samples;Min_cycle;Max_cycle;Signal;HPM_P1;HPM_P2
2023/12/17 00:01:06;;;;;;;16.13;6.90;;;;;;;6.28;88.78;100851.69;5028406;28;20329;-82
2023/12/17 00:03:32;;;;;;;14.20;6.60;;;;;;;6.32;88.52;100858.28;5013175;28;20049;-81
2023/12/17 00:05:57;;;;;;;16.42;6.72;;;;;;;6.33;88.39;100852.00;5049320;28;20036;-81
2023/12/17 00:08:22;;;;;;;14.88;6.72;;;;;;;6.24;88.81;100842.41;5030567;28;20382;-81
2023/12/17 00:10:51;;;;;;;15.95;6.53;;;;;;;6.36;89.06;100854.28;5048013;28;20036;-81
2023/12/17 00:13:18;;;;;;;16.65;6.82;;;;;;;6.34;88.56;100850.97;5048180;28;20109;-81
2023/12/17 00:15:43;;;;;;;13.48;5.68;;;;;;;6.34;88.53;100850.97;5030873;28;20464;-81
2023/12/17 00:18:10;;;;;;;18.65;7.78;;;;;;;6.29;88.97;100818.88;5030241;28;20056;-81
2023/12/17 00:20:35;;;;;;;11.63;6.97;;;;;;;6.28;88.77;100836.59;5047351;28;20035;-81
2023/12/17 00:23:01;;;;;;;12.65;6.30;;;;;;;6.32;88.24;100837.06;5012442;28;20025;-81
2023/12/17 00:25:26;;;;;;;14.63;6.72;;;;;;;6.41;88.74;100847.47;5013230;28;20061;-81
2023/12/17 00:27:52;;;;;;;13.52;6.97;;;;;;;6.31;89.14;100832.78;5042068;28;20061;-81
2023/12/17 00:30:17;;;;;;;13.90;7.53;;;;;;;6.25;89.05;100846.69;5028104;28;20091;-81
2023/12/17 00:32:43;;;;;;;13.45;6.55;;;;;;;6.38;88.57;100862.88;5028370;28;20036;-81
2023/12/17 00:35:08;;;;;;;17.70;7.93;;;;;;;6.36;89.00;100849.81;5042415;28;20115;-82
2023/12/17 00:37:33;;;;;;;11.48;6.28;;;;;;;6.24;88.72;100837.94;5046871;28;20483;-81
2023/12/17 00:39:58;;;;;;;13.48;6.20;;;;;;;6.28;88.85;100841.91;5026183;28;20581;-81
2023/12/17 00:42:24;;;;;;;15.40;7.32;;;;;;;6.35;88.19;100858.78;5026552;28;20396;-81
2023/12/17 00:44:49;;;;;;;14.52;7.15;;;;;;;6.24;89.04;100858.31;5027205;28;20101;-82
2023/12/17 00:47:15;;;;;;;10.80;6.45;;;;;;;6.12;88.74;100834.00;5028957;28;20037;-81
2023/12/17 00:49:40;;;;;;;14.60;7.22;;;;;;;6.34;88.21;100851.81;5026218;28;20039;-81
2023/12/17 00:52:05;;;;;;;13.55;6.28;;;;;;;6.25;88.72;100820.19;5042872;28;20131;-81
2023/12/17 00:54:31;;;;;;;14.13;7.00;;;;;;;6.21;88.73;100817.06;5038702;28;20422;-81
2023/12/17 00:56:56;;;;;;;16.33;7.57;;;;;;;6.32;88.70;100835.25;4999334;28;20099;-81
2023/12/17 00:59:21;;;;;;;11.93;8.02;;;;;;;6.12;88.29;100804.84;5038463;28;20483;-81
2023/12/17 01:01:47;;;;;;;19.02;7.32;;;;;;;6.38;88.88;100836.38;5033080;28;20308;-81
2023/12/17 01:04:12;;;;;;;15.23;7.70;;;;;;;6.25;88.60;100818.38;5034585;28;21135;-81
2023/12/17 01:06:37;;;;;;;14.63;7.50;;;;;;;6.30;89.00;100829.28;5035694;28;20066;-81
2023/12/17 01:09:03;;;;;;;15.20;7.00;;;;;;;6.24;89.37;100818.56;5035135;28;20121;-81
2023/12/17 01:11:28;;;;;;;16.73;7.50;;;;;;;6.33;88.49;100833.44;5017323;28;20036;-81
2023/12/17 01:13:54;;;;;;;17.95;7.85;;;;;;;6.25;88.15;100828.97;5018032;28;21319;-81
2023/12/17 01:16:19;;;;;;;25.20;11.00;;;;;;;6.27;88.24;100832.28;5024246;28;20041;-81
2023/12/17 01:18:44;;;;;;;13.63;8.25;;;;;;;6.26;89.27;100832.47;5023878;28;20025;-81
2023/12/17 01:21:10;;;;;;;15.98;8.63;;;;;;;6.14;88.91;100839.16;5030787;28;20032;-81
2023/12/17 01:23:37;;;;;;;14.05;6.70;;;;;;;6.09;89.61;100809.66;5015831;28;20104;-81
2023/12/17 01:26:02;;;;;;;14.93;7.15;;;;;;;6.36;88.90;100827.75;5034461;28;20032;-81
2023/12/17 01:28:27;;;;;;;17.50;8.40;;;;;;;6.26;89.41;100821.84;5048396;28;20039;-81
2023/12/17 01:30:53;;;;;;;17.27;9.32;;;;;;;6.28;89.63;100827.81;5031223;28;20065;-82
2023/12/17 01:33:18;;;;;;;16.30;8.15;;;;;;;6.33;89.14;100839.56;5015020;28;20043;-82
2023/12/17 01:35:43;;;;;;;15.60;7.47;;;;;;;6.30;88.54;100844.38;5050769;28;20072;-81
2023/12/17 01:38:09;;;;;;;19.58;9.50;;;;;;;6.18;89.56;100825.34;5045805;28;20037;-81
2023/12/17 01:40:34;;;;;;;14.80;8.15;;;;;;;6.38;88.80;100828.41;5021515;28;20029;-81
2023/12/17 01:43:03;;;;;;;13.73;8.23;;;;;;;6.35;89.56;100842.03;5035663;28;20059;-81
2023/12/17 01:45:28;;;;;;;15.95;8.48;;;;;;;6.23;89.21;100836.28;5029121;28;20120;-81
2023/12/17 01:47:54;;;;;;;13.73;7.60;;;;;;;6.28;89.03;100849.03;5047637;28;20120;-81
2023/12/17 01:50:20;;;;;;;18.70;8.60;;;;;;;6.32;89.49;100866.25;5019556;28;20039;-81
2023/12/17 01:52:45;;;;;;;19.85;10.10;;;;;;;6.19;89.53;100868.59;5047779;28;20399;-81
2023/12/17 01:55:11;;;;;;;18.65;8.88;;;;;;;6.30;89.52;100865.59;5014094;28;20090;-81
2023/12/17 01:57:36;;;;;;;14.55;8.00;;;;;;;6.31;89.42;100869.91;5022336;28;20122;-81
2023/12/17 02:00:03;;;;;;;15.00;9.57;;;;;;;6.26;89.48;100866.94;5040702;28;20025;-81
2023/12/17 02:02:30;;;;;;;19.85;9.02;;;;;;;6.27;88.96;100884.50;5022928;28;20128;-81
2023/12/17 02:04:56;;;;;;;16.02;9.35;;;;;;;6.31;89.33;100878.66;5045813;28;20040;-81
2023/12/17 02:07:21;;;;;;;16.80;9.98;;;;;;;6.29;89.05;100880.66;5012783;28;20037;-81
2023/12/17 02:09:47;;;;;;;14.10;9.13;;;;;;;6.30;88.41;100865.59;5050027;28;20029;-81
2023/12/17 02:12:26;;;;;;;18.42;9.15;;;;;;;6.40;88.51;100864.38;5050570;28;20037;-81
2023/12/17 02:14:51;;;;;;;14.80;8.68;;;;;;;6.38;88.41;100865.53;5048761;28;20025;-81
2023/12/17 02:17:23;;;;;;;17.60;9.75;;;;;;;6.46;87.88;100889.41;5045309;28;20396;-81
2023/12/17 02:19:48;;;;;;;14.93;8.90;;;;;;;6.51;88.00;100882.56;5045538;28;20529;-81
2023/12/17 02:22:14;;;;;;;19.35;9.43;;;;;;;6.34;88.56;100861.59;5029975;28;20067;-81
2023/12/17 02:24:39;;;;;;;14.70;9.38;;;;;;;6.46;88.57;100876.97;5028024;28;20026;-81
2023/12/17 02:27:04;;;;;;;15.93;8.23;;;;;;;6.43;88.76;100866.69;5046703;28;20510;-81
2023/12/17 02:29:30;;;;;;;19.02;10.90;;;;;;;6.41;88.67;100852.78;4999169;28;20090;-81
2023/12/17 02:31:55;;;;;;;16.48;9.60;;;;;;;6.39;89.15;100864.56;5015769;28;20040;-81
2023/12/17 02:34:20;;;;;;;20.67;9.25;;;;;;;6.53;88.24;100869.97;5032550;28;20029;-81
2023/12/17 02:36:46;;;;;;;15.20;9.20;;;;;;;6.41;88.45;100854.59;5016390;28;20037;-81
2023/12/17 02:39:11;;;;;;;18.42;9.10;;;;;;;6.29;88.62;100845.38;5027184;28;20041;-82
2023/12/17 02:41:36;;;;;;;19.00;9.90;;;;;;;6.24;89.10;100827.34;5013075;28;20033;-81
2023/12/17 02:44:02;;;;;;;17.92;9.75;;;;;;;6.25;89.04;100828.13;5002436;28;20388;-81
2023/12/17 02:46:27;;;;;;;17.00;9.82;;;;;;;6.26;89.11;100837.75;5034762;28;20029;-81
2023/12/17 02:48:52;;;;;;;17.77;10.27;;;;;;;6.18;90.03;100822.69;5032755;28;20029;-81
2023/12/17 02:51:18;;;;;;;23.10;10.27;;;;;;;6.27;89.40;100823.53;5012675;28;20116;-81
2023/12/17 02:53:43;;;;;;;14.90;9.43;;;;;;;6.20;89.74;100830.50;5029553;28;20024;-81
2023/12/17 02:56:09;;;;;;;18.08;10.38;;;;;;;6.27;89.43;100834.94;5030584;28;20449;-81
2023/12/17 02:58:34;;;;;;;14.88;10.25;;;;;;;6.29;89.28;100834.78;5020618;28;20436;-81
2023/12/17 03:00:59;;;;;;;17.85;9.32;;;;;;;6.20;90.16;100831.34;5030648;28;20071;-81
2023/12/17 03:03:25;;;;;;;18.23;11.07;;;;;;;6.24;90.36;100832.63;4998940;28;20106;-81
2023/12/17 03:05:50;;;;;;;16.17;9.52;;;;;;;6.27;89.98;100818.22;5013897;28;20033;-81
2023/12/17 03:08:15;;;;;;;16.63;9.15;;;;;;;6.24;89.82;100819.38;5032429;28;20037;-81
2023/12/17 03:10:43;;;;;;;18.73;9.23;;;;;;;6.30;90.19;100837.25;5000957;28;20064;-81
2023/12/17 03:13:08;;;;;;;24.85;11.90;;;;;;;6.26;89.97;100824.50;5032131;28;20032;-82
2023/12/17 03:15:34;;;;;;;16.15;11.00;;;;;;;6.24;89.60;100819.38;5029622;28;20034;-81
2023/12/17 03:18:00;;;;;;;16.75;9.82;;;;;;;6.27;89.50;100834.13;5018211;28;20523;-81
2023/12/17 03:20:26;;;;;;;18.65;10.95;;;;;;;6.28;89.84;100825.16;5030323;28;20047;-81
2023/12/17 03:22:51;;;;;;;17.73;10.20;;;;;;;6.34;90.27;100843.03;5027474;28;20028;-81
2023/12/17 03:25:17;;;;;;;20.17;10.75;;;;;;;6.26;89.81;100837.75;5018085;28;20059;-81
2023/12/17 03:27:42;;;;;;;18.27;11.27;;;;;;;6.24;90.47;100832.63;5022887;28;20025;-81
2023/12/17 03:30:08;;;;;;;17.15;10.70;;;;;;;6.36;90.04;100831.25;5032129;28;20036;-81
2023/12/17 03:32:33;;;;;;;18.02;10.65;;;;;;;6.21;89.99;100822.38;5045608;28;20087;-81
2023/12/17 03:34:59;;;;;;;14.90;9.77;;;;;;;6.28;89.94;100823.34;5033873;28;20033;-81
2023/12/17 03:37:24;;;;;;;18.20;10.52;;;;;;;6.21;91.15;100832.97;5051097;28;20120;-81
2023/12/17 03:39:50;;;;;;;18.17;11.60;;;;;;;6.19;89.99;100820.88;5031819;28;20040;-81
2023/12/17 03:42:15;;;;;;;19.35;11.00;;;;;;;6.31;90.38;100843.38;5014529;28;20060;-82
2023/12/17 03:44:41;;;;;;;20.63;13.15;;;;;;;6.23;89.64;100832.78;5043292;28;20029;-81
2023/12/17 03:47:06;;;;;;;15.90;11.00;;;;;;;6.23;90.33;100840.75;5043001;28;20178;-81
2023/12/17 03:49:31;;;;;;;20.05;11.30;;;;;;;6.36;89.75;100828.59;5030921;28;20040;-81
2023/12/17 03:51:57;;;;;;;19.70;11.20;;;;;;;6.32;89.82;100808.72;5039953;28;20459;-81
2023/12/17 03:54:22;;;;;;;20.48;12.07;;;;;;;6.22;89.89;100796.69;5015924;28;20107;-81
2023/12/17 03:56:47;;;;;;;16.60;10.85;;;;;;;6.39;89.71;100806.22;5031299;28;20047;-81
2023/12/17 03:59:13;;;;;;;20.52;12.98;;;;;;;6.13;90.68;100792.41;5032253;28;20033;-81
2023/12/17 04:01:48;;;;;;;19.88;10.73;;;;;;;6.24;89.55;100782.25;5045531;28;20025;-81
2023/12/17 04:04:13;;;;;;;15.90;10.65;;;;;;;6.19;90.24;100775.81;5027329;28;20036;-81
2023/12/17 04:06:41;;;;;;;21.65;12.00;;;;;;;6.19;90.31;100778.47;5044141;28;20756;-81
2023/12/17 04:09:07;;;;;;;20.65;11.88;;;;;;;6.32;89.67;100790.16;5045478;28;20052;-81
2023/12/17 04:11:32;;;;;;;15.80;10.90;;;;;;;6.14;89.88;100757.78;4997894;28;20033;-81
2023/12/17 04:13:57;;;;;;;18.80;11.07;;;;;;;6.27;90.38;100770.50;5015904;28;20476;-81
2023/12/17 04:16:23;;;;;;;16.92;11.63;;;;;;;6.33;89.59;100777.75;4997121;28;20505;-81
2023/12/17 04:18:49;;;;;;;22.40;11.25;;;;;;;6.27;90.05;100765.19;5012950;28;20036;-81
2023/12/17 04:21:14;;;;;;;19.13;12.32;;;;;;;6.26;89.82;100764.34;5014491;28;20032;-81
2023/12/17 04:23:39;;;;;;;19.45;11.80;;;;;;;6.29;90.20;100764.00;4992842;28;20129;-81
2023/12/17 04:26:05;;;;;;;18.85;11.82;;;;;;;6.31;89.72;100777.09;5011072;28;20029;-81
2023/12/17 04:28:30;;;;;;;20.10;12.27;;;;;;;6.22;90.45;100757.75;5011683;28;20048;-81
2023/12/17 04:30:55;;;;;;;19.98;12.32;;;;;;;6.18;89.99;100745.00;5029348;28;20031;-81
2023/12/17 04:33:21;;;;;;;17.85;12.15;;;;;;;6.30;89.86;100765.66;5014229;28;20057;-81
2023/12/17 04:35:46;;;;;;;20.65;12.32;;;;;;;6.22;90.10;100757.75;5027263;28;20028;-81
2023/12/17 04:38:13;;;;;;;16.50;11.23;;;;;;;6.28;90.26;100767.66;5032027;28;20048;-81
2023/12/17 04:40:40;;;;;;;23.85;13.85;;;;;;;6.11;90.50;100749.34;5014121;28;20041;-81
2023/12/17 04:43:06;;;;;;;22.88;11.98;;;;;;;6.22;90.41;100765.72;5030852;28;20029;-81
2023/12/17 04:45:31;;;;;;;17.50;11.55;;;;;;;6.25;89.72;100772.47;5011274;28;20480;-81
2023/12/17 04:47:57;;;;;;;25.98;13.43;;;;;;;6.28;89.98;100766.81;5046437;28;20027;-81
2023/12/17 04:50:22;;;;;;;21.80;13.85;;;;;;;6.24;90.40;100771.66;5049718;28;20068;-81
2023/12/17 04:52:47;;;;;;;23.25;12.73;;;;;;;6.21;90.13;100766.69;5045259;28;20032;-81
2023/12/17 04:55:13;;;;;;;24.95;11.82;;;;;;;6.17;90.92;100773.34;5028667;28;20403;-81
2023/12/17 04:57:38;;;;;;;19.30;13.10;;;;;;;6.19;90.69;100747.47;5047804;28;20411;-81
2023/12/17 05:00:05;;;;;;;23.20;13.48;;;;;;;6.19;90.45;100755.44;5029835;28;20559;-81
2023/12/17 05:02:31;;;;;;;22.58;12.95;;;;;;;6.23;89.80;100766.50;5026634;28;20041;-81
2023/12/17 05:04:56;;;;;;;21.42;12.82;;;;;;;6.23;90.56;100766.50;5031716;28;20036;-81
2023/12/17 05:07:21;;;;;;;23.08;14.80;;;;;;;6.11;90.67;100746.69;5030404;28;20033;-82
2023/12/17 05:09:47;;;;;;;22.48;12.75;;;;;;;6.18;90.93;100764.38;5013680;28;20039;-81
2023/12/17 05:12:12;;;;;;;18.67;12.43;;;;;;;6.18;90.76;100761.72;5032883;28;20021;-81
2023/12/17 05:14:37;;;;;;;18.70;12.80;;;;;;;6.14;90.97;100762.28;5010979;28;20057;-81
2023/12/17 05:17:03;;;;;;;18.65;12.00;;;;;;;6.16;90.29;100768.22;5049186;28;20028;-81
2023/12/17 05:19:28;;;;;;;20.42;11.75;;;;;;;6.09;90.28;100752.19;5043853;28;20080;-81
2023/12/17 05:21:54;;;;;;;26.30;12.98;;;;;;;6.05;90.84;100756.16;5029246;28;20071;-81
2023/12/17 05:24:19;;;;;;;20.40;12.88;;;;;;;6.07;90.38;100748.03;5010192;28;20025;-81
2023/12/17 05:26:44;;;;;;;17.65;12.43;;;;;;;6.11;90.16;100773.19;5014384;28;20044;-81
2023/12/17 05:29:10;;;;;;;26.10;12.57;;;;;;;6.12;90.57;100773.03;5046015;28;20041;-81
2023/12/17 05:31:35;;;;;;;21.65;12.77;;;;;;;5.90;90.71;100769.31;5046497;28;20029;-81
2023/12/17 05:34:00;;;;;;;19.27;12.52;;;;;;;6.15;90.32;100777.16;5010222;28;20025;-81
2023/12/17 05:36:25;;;;;;;21.85;12.02;;;;;;;6.11;90.58;100778.50;5049351;28;20034;-81
2023/12/17 05:38:51;;;;;;;19.05;12.07;;;;;;;6.23;90.02;100785.06;4994092;28;20070;-81
2023/12/17 05:41:16;;;;;;;23.48;13.05;;;;;;;6.14;90.49;100770.22;5006438;28;20355;-81
2023/12/17 05:43:42;;;;;;;26.52;14.35;;;;;;;6.19;90.14;100759.91;5010743;28;20036;-81
2023/12/17 05:46:07;;;;;;;20.15;13.30;;;;;;;6.09;90.56;100776.03;5049552;28;20036;-81
2023/12/17 05:48:32;;;;;;;17.13;12.35;;;;;;;6.28;90.98;100783.56;5033457;28;20025;-81
2023/12/17 05:50:58;;;;;;;21.48;13.20;;;;;;;6.12;89.90;100777.50;5037075;28;20036;-81
2023/12/17 05:53:23;;;;;;;22.58;12.27;;;;;;;6.08;90.54;100787.63;5024925;28;20075;-81
2023/12/17 05:55:49;;;;;;;23.00;13.20;;;;;;;6.24;90.90;100800.81;5014509;28;20057;-81
2023/12/17 05:58:14;;;;;;;20.90;11.65;;;;;;;6.10;90.15;100788.28;5012917;28;20029;-81
2023/12/17 06:00:39;;;;;;;21.00;12.00;;;;;;;6.25;90.11;100789.19;5014646;28;20499;-81
2023/12/17 06:03:05;;;;;;;22.00;12.85;;;;;;;6.19;90.27;100778.47;5030518;28;20033;-81
2023/12/17 06:05:30;;;;;;;21.98;12.90;;;;;;;6.14;90.14;100772.88;4994142;28;20151;-81
2023/12/17 06:07:55;;;;;;;21.90;13.00;;;;;;;6.16;90.16;100778.81;5007688;28;20080;-81
2023/12/17 06:10:21;;;;;;;18.88;11.77;;;;;;;6.17;89.74;100778.66;4992305;28;20038;-81
2023/12/17 06:12:46;;;;;;;20.73;12.60;;;;;;;6.14;90.18;100784.28;5024631;28;20115;-81
2023/12/17 06:15:12;;;;;;;17.05;11.93;;;;;;;6.12;89.62;100793.41;4992667;28;20603;-81
2023/12/17 06:17:37;;;;;;;21.70;11.80;;;;;;;6.15;90.38;100783.28;5023432;28;22128;-81
2023/12/17 06:20:03;;;;;;;17.33;11.85;;;;;;;6.10;90.35;100795.41;5027346;28;20377;-81
2023/12/17 06:22:28;;;;;;;20.27;13.02;;;;;;;6.01;90.92;100798.09;5033043;28;20545;-80
2023/12/17 06:24:54;;;;;;;21.92;12.75;;;;;;;6.02;91.43;100806.88;5051591;28;20033;-81
2023/12/17 06:27:19;;;;;;;17.83;12.95;;;;;;;6.09;90.65;100799.06;5046304;28;20048;-81
2023/12/17 06:29:47;;;;;;;19.88;12.48;;;;;;;5.90;91.11;100782.56;5024323;28;20053;-81
2023/12/17 06:32:12;;;;;;;25.05;13.65;;;;;;;6.02;90.69;100818.31;5043467;28;20043;-81
2023/12/17 06:34:38;;;;;;;18.33;11.90;;;;;;;6.24;90.01;100829.16;5023802;28;20029;-82
2023/12/17 06:37:03;;;;;;;20.33;12.32;;;;;;;6.20;90.33;100819.91;5043388;28;20151;-81
2023/12/17 06:39:29;;;;;;;18.25;12.93;;;;;;;6.26;89.81;100820.03;4991545;28;20028;-82
2023/12/17 06:41:54;;;;;;;17.27;11.60;;;;;;;6.20;89.89;100812.78;5043213;28;20035;-82
2023/12/17 06:44:21;;;;;;;20.00;13.07;;;;;;;6.13;89.98;100810.97;5023631;28;20178;-81
2023/12/17 06:46:46;;;;;;;15.95;12.18;;;;;;;6.14;90.22;100813.44;5025755;28;20020;-81
2023/12/17 06:49:12;;;;;;;23.05;13.82;;;;;;;6.15;90.22;100806.31;5043087;28;20037;-81
2023/12/17 06:51:40;;;;;;;18.23;12.57;;;;;;;6.12;90.42;100801.34;5039912;28;20040;-81
2023/12/17 06:54:07;;;;;;;19.20;11.93;;;;;;;6.01;90.09;100779.53;5041600;28;20512;-81
2023/12/17 06:56:32;;;;;;;22.58;13.63;;;;;;;6.04;90.62;100805.72;5007804;28;20116;-81
2023/12/17 06:58:57;;;;;;;23.95;12.85;;;;;;;6.01;90.70;100807.84;5007789;28;20123;-81
2023/12/17 07:01:23;;;;;;;17.88;12.60;;;;;;;6.18;89.99;100816.59;5023836;28;20056;-81
2023/12/17 07:03:49;;;;;;;21.27;14.07;;;;;;;6.17;90.01;100825.53;5042951;28;20072;-81
2023/12/17 07:06:14;;;;;;;17.77;12.40;;;;;;;6.14;89.76;100829.34;5042915;28;20035;-81
2023/12/17 07:08:41;;;;;;;20.80;13.52;;;;;;;6.08;90.72;100827.38;5025237;28;20036;-81
2023/12/17 07:11:07;;;;;;;18.92;13.00;;;;;;;6.11;91.04;100834.19;5041712;28;20045;-81
2023/12/17 07:13:32;;;;;;;18.95;13.27;;;;;;;5.84;91.27;100820.34;5045815;28;20028;-81
2023/12/17 07:15:57;;;;;;;21.48;14.13;;;;;;;6.11;90.71;100821.75;4990314;28;20087;-81
2023/12/17 07:18:23;;;;;;;20.67;13.98;;;;;;;5.99;90.89;100844.31;5043276;28;20037;-81
2023/12/17 07:20:49;;;;;;;20.27;12.23;;;;;;;6.11;90.43;100834.19;5022980;28;21826;-81
2023/12/17 07:23:14;;;;;;;20.45;12.10;;;;;;;6.00;90.18;100822.13;5003530;28;21485;-81
2023/12/17 07:25:40;;;;;;;23.20;12.75;;;;;;;6.18;90.26;100840.44;5023453;28;20029;-81
2023/12/17 07:28:05;;;;;;;20.88;12.27;;;;;;;6.09;90.03;100838.81;4991123;28;20416;-81
2023/12/17 07:30:31;;;;;;;19.38;12.80;;;;;;;6.12;91.12;100844.59;5025681;28;20838;-81
2023/12/17 07:32:56;;;;;;;21.08;13.18;;;;;;;6.01;90.67;100829.06;5024397;28;20037;-81
2023/12/17 07:35:22;;;;;;;19.67;12.48;;;;;;;5.99;90.35;100833.72;5043946;28;20074;-81
2023/12/17 07:37:47;;;;;;;21.10;11.95;;;;;;;5.98;89.36;100850.63;5027246;28;20037;-81
2023/12/17 07:40:13;;;;;;;16.67;11.02;;;;;;;6.14;90.61;100847.09;5043688;28;20029;-81
2023/12/17 07:42:38;;;;;;;18.90;11.57;;;;;;;5.94;90.67;100836.06;5023050;28;20087;-80
2023/12/17 07:45:04;;;;;;;17.35;10.88;;;;;;;5.97;90.16;100849.78;5031448;28;20029;-81
2023/12/17 07:47:30;;;;;;;17.65;11.95;;;;;;;6.07;90.77;100848.78;5032760;28;20033;-81
2023/12/17 07:49:57;;;;;;;16.27;10.05;;;;;;;6.12;90.08;100835.81;5049649;28;20166;-81
2023/12/17 07:52:22;;;;;;;18.98;11.50;;;;;;;6.14;89.83;100839.16;5048579;28;20044;-81
2023/12/17 07:54:47;;;;;;;20.25;12.63;;;;;;;6.15;90.40;100832.84;5013306;28;20016;-81
2023/12/17 07:57:13;;;;;;;20.13;11.30;;;;;;;6.17;89.53;100847.56;5031254;28;20063;-82
2023/12/17 07:59:38;;;;;;;17.52;10.68;;;;;;;6.16;89.88;100819.41;5030073;28;20686;-81
2023/12/17 08:02:04;;;;;;;17.55;11.00;;;;;;;6.26;89.19;100841.25;4996321;28;20056;-81
2023/12/17 08:04:29;;;;;;;18.88;11.30;;;;;;;6.30;89.54;100831.13;5047676;28;22037;-80
2023/12/17 08:06:54;;;;;;;15.77;9.85;;;;;;;6.00;89.58;100820.31;5029419;28;21516;-81
2023/12/17 08:09:20;;;;;;;14.68;10.57;;;;;;;6.04;90.33;100818.97;5049472;28;20453;-81
2023/12/17 08:11:45;;;;;;;22.73;12.65;;;;;;;6.10;89.44;100837.81;5009511;28;20029;-81
2023/12/17 08:14:10;;;;;;;15.55;9.93;;;;;;;6.23;89.64;100843.41;5016771;28;20047;-81
2023/12/17 08:16:36;;;;;;;17.50;10.35;;;;;;;6.22;89.39;100832.00;5013954;28;20060;-81
2023/12/17 08:19:01;;;;;;;13.48;10.27;;;;;;;6.28;89.13;100843.72;5011107;28;20037;-81
2023/12/17 08:21:26;;;;;;;13.93;9.43;;;;;;;6.29;89.34;100840.09;5012078;28;20126;-81
2023/12/17 08:23:52;;;;;;;17.48;11.60;;;;;;;6.22;88.66;100817.91;5025119;28;20048;-81
2023/12/17 08:26:17;;;;;;;16.98;10.00;;;;;;;6.15;89.26;100816.94;5031105;28;20124;-81
2023/12/17 08:28:43;;;;;;;16.30;9.75;;;;;;;6.04;89.22;100811.00;5025389;28;20021;-81
2023/12/17 08:31:09;;;;;;;17.77;10.90;;;;;;;6.05;89.22;100827.72;5058621;28;20033;-81
2023/12/17 08:33:36;;;;;;;13.82;9.82;;;;;;;6.09;89.51;100841.47;5015317;28;20029;-80
2023/12/17 08:36:01;;;;;;;12.20;8.05;;;;;;;6.01;89.80;100818.47;5026892;28;20030;-81
2023/12/17 08:38:27;;;;;;;13.50;9.85;;;;;;;6.09;89.18;100841.47;5025200;28;20400;-81
2023/12/17 08:40:52;;;;;;;14.52;9.93;;;;;;;6.08;89.55;100840.63;5023485;28;23620;-79
2023/12/17 08:43:17;;;;;;;12.70;9.30;;;;;;;5.98;89.36;100821.47;5025125;28;21454;-80
2023/12/17 08:45:43;;;;;;;15.77;9.55;;;;;;;6.05;88.53;100819.75;5024361;28;20806;-80
2023/12/17 08:48:08;;;;;;;13.73;8.95;;;;;;;6.17;89.03;100833.47;5009403;28;20025;-81
2023/12/17 08:50:34;;;;;;;14.63;8.85;;;;;;;6.11;89.08;100828.88;5027556;28;20123;-81
2023/12/17 08:52:59;;;;;;;16.02;9.65;;;;;;;6.20;89.13;100839.28;5007514;28;20116;-81
2023/12/17 08:55:24;;;;;;;13.65;9.18;;;;;;;6.16;89.30;100832.66;5026073;28;20029;-81
2023/12/17 08:57:50;;;;;;;13.18;8.88;;;;;;;6.11;89.10;100815.63;5043171;28;20052;-81
2023/12/17 09:00:18;;;;;;;17.23;9.55;;;;;;;6.14;89.67;100823.25;5023457;28;20508;-80
2023/12/17 09:02:44;;;;;;;14.43;8.98;;;;;;;6.14;88.56;100818.75;5024839;28;20029;-81
2023/12/17 09:05:09;;;;;;;12.25;8.55;;;;;;;6.16;88.96;100811.44;5021391;28;20021;-80
2023/12/17 09:07:34;;;;;;;11.38;8.27;;;;;;;6.20;88.66;100812.78;5002592;28;20029;-81
2023/12/17 09:10:00;;;;;;;12.07;8.93;;;;;;;6.29;88.25;100819.66;5024036;28;20032;-81
2023/12/17 09:12:26;;;;;;;14.38;9.25;;;;;;;6.18;88.02;100790.09;5010776;28;20033;-81
2023/12/17 09:14:51;;;;;;;11.77;8.38;;;;;;;6.18;88.13;100817.41;5030182;28;20417;-82
2023/12/17 09:17:17;;;;;;;13.32;9.05;;;;;;;6.11;89.04;100816.44;5047875;28;20144;-81
2023/12/17 09:19:42;;;;;;;14.50;9.10;;;;;;;6.07;89.42;100808.00;5028050;28;20029;-80
2023/12/17 09:22:07;;;;;;;17.55;9.40;;;;;;;5.99;88.84;100784.19;5032900;28;20061;-81
2023/12/17 09:24:34;;;;;;;15.23;9.00;;;;;;;6.19;88.80;100816.41;5040709;28;20025;-81
2023/12/17 09:27:00;;;;;;;14.18;8.70;;;;;;;6.21;88.46;100809.09;5030419;28;20017;-81
2023/12/17 09:29:26;;;;;;;12.85;8.73;;;;;;;6.32;88.31;100829.13;5026920;28;20029;-81
2023/12/17 09:31:51;;;;;;;10.65;8.13;;;;;;;6.23;87.96;100830.97;5046576;28;20033;-82
2023/12/17 09:34:16;;;;;;;10.32;7.60;;;;;;;6.11;88.59;100797.06;5001882;28;20127;-81
2023/12/17 09:36:42;;;;;;;10.90;7.93;;;;;;;6.29;88.94;100824.97;5049427;28;20045;-81
2023/12/17 09:39:08;;;;;;;15.35;10.07;;;;;;;6.34;89.13;100827.13;5048858;28;20104;-81
2023/12/17 09:41:33;;;;;;;13.77;10.23;;;;;;;6.28;88.09;100811.91;5049305;28;20032;-81
2023/12/17 09:44:00;;;;;;;18.38;13.32;;;;;;;6.40;87.79;100814.00;5031593;28;20025;-81
2023/12/17 09:46:25;;;;;;;15.95;11.75;;;;;;;6.35;87.94;100812.88;5016092;28;20025;-81
2023/12/17 09:48:51;;;;;;;21.90;14.25;;;;;;;6.28;87.80;100799.47;5017704;28;20043;-81
2023/12/17 09:51:18;;;;;;;20.02;12.45;;;;;;;6.48;87.93;100813.97;5045626;28;20447;-81
2023/12/17 09:53:44;;;;;;;18.30;13.57;;;;;;;6.39;87.57;100803.56;5052073;28;20060;-81
2023/12/17 09:56:11;;;;;;;14.05;11.45;;;;;;;6.36;87.50;100814.50;5047680;28;20033;-81
2023/12/17 09:58:37;;;;;;;14.93;11.85;;;;;;;6.35;87.27;100829.63;5031788;28;20478;-82
2023/12/17 10:01:02;;;;;;;14.43;10.27;;;;;;;6.41;87.59;100815.66;5042590;28;20029;-80
2023/12/17 10:03:27;;;;;;;15.25;10.50;;;;;;;6.48;88.08;100813.97;4990891;28;20045;-81
2023/12/17 10:05:53;;;;;;;11.40;8.82;;;;;;;6.44;87.51;100815.31;5027293;28;20039;-81
2023/12/17 10:08:19;;;;;;;13.43;9.68;;;;;;;6.41;87.53;100818.31;5008738;28;20425;-81
2023/12/17 10:10:45;;;;;;;10.25;8.05;;;;;;;6.39;86.98;100808.88;5026472;28;20072;-81
2023/12/17 10:13:22;;;;;;;15.05;8.23;;;;;;;6.26;87.21;100798.81;5007959;28;20036;-81
2023/12/17 10:15:52;;;;;;;11.82;8.02;;;;;;;6.15;87.98;100774.50;5026984;28;20049;-80
2023/12/17 10:18:18;;;;;;;9.45;7.25;;;;;;;6.32;87.55;100799.94;5045613;28;20036;-80
2023/12/17 10:20:45;;;;;;;12.27;7.43;;;;;;;6.38;87.60;100797.44;5010892;28;20029;-81
2023/12/17 10:23:11;;;;;;;12.48;9.10;;;;;;;6.44;87.14;100794.09;5026589;28;20036;-79
2023/12/17 10:25:36;;;;;;;10.98;8.88;;;;;;;6.37;87.31;100771.91;5030010;28;20664;-82
2023/12/17 10:28:02;;;;;;;12.82;8.48;;;;;;;6.46;86.92;100767.41;5016975;28;20033;-79
2023/12/17 10:30:29;;;;;;;12.35;8.43;;;;;;;6.43;87.05;100760.59;5025024;28;20043;-82
2023/12/17 10:32:56;;;;;;;15.95;10.82;;;;;;;6.42;86.83;100752.84;5047860;28;20053;-82
2023/12/17 10:35:25;;;;;;;12.70;9.88;;;;;;;6.42;86.82;100752.84;5049989;28;20021;-79
2023/12/17 10:38:02;;;;;;;12.55;10.32;;;;;;;6.53;86.97;100768.34;5027489;28;20045;-81
2023/12/17 10:40:28;;;;;;;11.45;10.25;;;;;;;6.49;86.84;100757.25;5033237;28;20039;-81
2023/12/17 10:42:56;;;;;;;10.50;8.00;;;;;;;6.43;86.66;100749.16;5013939;28;20037;-81
2023/12/17 10:45:22;;;;;;;10.02;8.90;;;;;;;6.51;86.50;100754.44;5034872;28;20039;-81
2023/12/17 10:47:52;;;;;;;10.45;8.45;;;;;;;6.56;86.65;100746.75;5039794;28;20033;-81
2023/12/17 10:50:18;;;;;;;10.13;7.55;;;;;;;6.62;86.60;100760.16;5050219;28;20060;-81
2023/12/17 10:52:45;;;;;;;8.88;6.75;;;;;;;6.58;86.55;100752.72;5048644;28;20051;-81
2023/12/17 10:55:11;;;;;;;7.68;5.93;;;;;;;6.46;85.93;100752.31;5032469;28;20013;-81
2023/12/17 10:57:39;;;;;;;9.63;6.10;;;;;;;6.56;86.80;100754.72;5032388;28;20067;-81
2023/12/17 11:00:07;;;;;;;7.57;5.45;;;;;;;6.61;86.57;100739.94;5034435;28;20031;-81
2023/12/17 11:02:33;;;;;;;7.32;5.22;;;;;;;6.54;86.57;100733.69;5008691;28;20143;-81
2023/12/17 11:04:58;;;;;;;11.15;8.10;;;;;;;6.42;87.02;100721.81;4991116;28;20025;-81
2023/12/17 11:07:26;;;;;;;8.85;7.55;;;;;;;6.40;86.05;100725.66;5006374;28;20534;-81
2023/12/17 11:09:52;;;;;;;8.52;7.60;;;;;;;6.37;86.47;100723.34;4992670;28;20152;-81
2023/12/17 11:12:21;;;;;;;6.85;6.15;;;;;;;6.50;85.89;100737.69;5019823;28;20559;-81
2023/12/17 11:14:46;;;;;;;8.38;6.38;;;;;;;6.52;85.48;100726.91;5042394;28;20110;-81